Time;durP1;ratioP1;P1;durP2;ratioP2;P2;SDS_P1;SDS_P2;PMS_P1;PMS_P2;Temp;Humidity;BMP_temperature;BMP_pressure;BME280_temperature;BME280_humidity;BME280_pressure;Samples;Min_cycle;Max_cycle;Signal;HPM_P1;HPM_P2
2023/03/06 05:17:49;;;;;;;1.50;0.28;;;9.90;58.60;;;;;;4814361;24;20063;-81
2023/03/06 05:20:16;;;;;;;2.47;0.40;;;9.80;59.00;;;;;;4775117;30;20056;-79
2023/03/06 05:22:41;;;;;;;2.67;0.20;;;9.90;59.30;;;;;;4775006;30;20044;-73
2023/03/06 05:25:09;;;;;;;3.88;0.73;;;10.00;59.80;;;;;;4775007;30;20120;-77
2023/03/06 05:27:35;;;;;;;3.95;0.35;;;10.10;60.10;;;;;;4758894;30;20368;-75
2023/03/06 05:30:01;;;;;;;3.58;0.77;;;10.40;59.90;;;;;;4774234;30;20056;-78
2023/03/06 05:32:27;;;;;;;4.78;0.70;;;10.70;60.10;;;;;;4774820;30;20459;-76
2023/03/06 05:34:53;;;;;;;8.23;0.70;;;11.00;59.80;;;;;;4774573;30;20455;-75
2023/03/06 05:37:19;;;;;;;12.50;1.25;;;11.30;60.00;;;;;;4758472;30;20047;-75
2023/03/06 05:39:44;;;;;;;17.85;1.40;;;11.40;60.10;;;;;;4773168;30;20052;-76
2023/03/06 05:42:10;;;;;;;15.85;1.27;;;11.70;60.50;;;;;;4758717;30;20059;-75
2023/03/06 05:44:37;;;;;;;13.60;1.25;;;11.80;61.20;;;;;;4775186;30;20055;-75
2023/03/06 05:47:03;;;;;;;14.10;1.83;;;12.00;60.50;;;;;;4774502;30;20055;-75
2023/03/06 05:49:34;;;;;;;8.88;0.70;;;12.20;60.60;;;;;;4773969;30;20051;-74
2023/03/06 05:52:02;;;;;;;12.52;0.88;;;12.20;58.70;;;;;;4774426;30;20047;-74
2023/03/06 05:54:30;;;;;;;25.83;2.22;;;12.40;60.20;;;;;;4773973;30;20047;-74
2023/03/06 05:56:58;;;;;;;16.77;1.75;;;12.50;60.40;;;;;;4774366;30;20056;-76
2023/03/06 05:59:28;;;;;;;14.20;1.00;;;12.60;60.60;;;;;;4773685;30;20459;-75
2023/03/06 06:01:54;;;;;;;14.35;1.48;;;12.80;60.60;;;;;;4773888;30;20060;-75
2023/03/06 06:04:21;;;;;;;17.80;1.42;;;12.90;60.50;;;;;;4758765;30;20456;-75
2023/03/06 06:06:54;;;;;;;17.20;1.67;;;13.10;60.60;;;;;;4774055;30;20131;-77
2023/03/06 06:09:21;;;;;;;10.57;1.50;;;13.10;60.60;;;;;;4773844;30;20051;-76
2023/03/06 06:11:50;;;;;;;17.02;1.40;;;13.20;60.00;;;;;;4774174;30;20321;-75
2023/03/06 06:14:16;;;;;;;18.17;1.65;;;13.30;60.80;;;;;;4774105;30;20127;-76
2023/03/06 06:16:41;;;;;;;15.40;2.75;;;13.40;60.30;;;;;;4772803;30;20531;-75
2023/03/06 06:19:07;;;;;;;14.90;1.55;;;13.50;60.50;;;;;;4773090;30;20063;-79
2023/03/06 06:21:33;;;;;;;22.73;2.63;;;13.50;60.60;;;;;;4773813;30;20052;-79
2023/03/06 06:23:58;;;;;;;24.33;2.05;;;13.60;60.80;;;;;;4774239;30;20059;-77
2023/03/06 06:26:24;;;;;;;20.02;1.88;;;13.70;61.10;;;;;;4743650;30;20543;-80
2023/03/06 06:28:52;;;;;;;18.75;2.63;;;13.70;61.10;;;;;;4754577;30;20097;-79
2023/03/06 06:31:18;;;;;;;18.05;2.17;;;13.80;61.20;;;;;;4739864;30;20508;-78
2023/03/06 06:33:47;;;;;;;18.75;2.08;;;13.80;61.10;;;;;;4769026;30;20126;-81
2023/03/06 06:36:23;;;;;;;14.48;1.80;;;13.90;60.60;;;;;;4771672;30;20070;-77
2023/03/06 06:38:51;;;;;;;19.77;2.33;;;14.00;60.70;;;;;;4753142;30;20059;-81
2023/03/06 06:42:10;;;;;;;20.40;2.78;;;14.00;60.70;;;;;;4766572;30;20395;-81
2023/03/06 06:44:57;;;;;;;21.02;2.30;;;14.10;60.80;;;;;;4755296;30;20048;-80
2023/03/06 06:47:33;;;;;;;20.13;2.42;;;14.10;61.10;;;;;;4743275;30;20056;-81
2023/03/06 06:50:25;;;;;;;24.23;2.42;;;14.20;60.90;;;;;;4772355;30;20089;-80
2023/03/06 06:52:54;;;;;;;24.63;2.10;;;14.20;60.80;;;;;;4756530;30;20055;-82
2023/03/06 06:55:20;;;;;;;32.17;2.63;;;14.30;60.90;;;;;;4765389;30;20052;-81
2023/03/06 06:57:46;;;;;;;21.92;2.58;;;14.40;60.90;;;;;;4737656;30;20048;-81
2023/03/06 07:00:15;;;;;;;20.02;2.92;;;14.50;60.60;;;;;;4757544;30;20063;-81
2023/03/06 07:02:41;;;;;;;21.40;2.50;;;14.50;60.50;;;;;;4772023;30;20066;-78
2023/03/06 07:05:07;;;;;;;27.63;2.95;;;14.60;60.40;;;;;;4772332;30;20047;-80
2023/03/06 07:07:35;;;;;;;18.27;1.70;;;14.60;60.20;;;;;;4756563;30;20056;-80
2023/03/06 07:10:05;;;;;;;21.05;2.05;;;14.60;59.90;;;;;;4772680;30;20371;-81
2023/03/06 07:12:31;;;;;;;19.30;1.80;;;14.70;59.90;;;;;;4772277;30;20048;-80
2023/03/06 07:14:57;;;;;;;33.67;3.38;;;14.70;59.60;;;;;;4772506;30;20126;-80
2023/03/06 07:17:23;;;;;;;21.67;1.92;;;14.70;59.50;;;;;;4755842;30;20130;-81
2023/03/06 07:19:49;;;;;;;19.73;2.05;;;14.80;59.40;;;;;;4756061;30;20471;-80
2023/03/06 07:22:14;;;;;;;19.13;1.45;;;14.80;59.10;;;;;;4756413;30;20075;-81
2023/03/06 07:24:40;;;;;;;12.23;1.98;;;14.90;59.00;;;;;;4772621;30;20063;-80
2023/03/06 07:27:06;;;;;;;6.80;0.85;;;14.80;58.80;;;;;;4755858;30;20060;-81
2023/03/06 07:29:33;;;;;;;18.48;2.15;;;14.90;58.70;;;;;;4757560;30;20051;-80
2023/03/06 07:31:59;;;;;;;12.35;1.67;;;14.90;58.50;;;;;;4772462;30;20056;-81
2023/03/06 07:34:25;;;;;;;11.32;1.35;;;15.00;58.40;;;;;;4757411;30;20133;-81
2023/03/06 07:36:50;;;;;;;10.70;1.25;;;15.00;58.20;;;;;;4755621;30;20535;-81
2023/03/06 07:39:16;;;;;;;12.15;1.98;;;15.10;58.00;;;;;;4741554;30;20091;-80
2023/03/06 07:41:42;;;;;;;9.30;1.60;;;15.10;57.90;;;;;;4741934;30;20043;-80
2023/03/06 07:44:08;;;;;;;10.90;1.25;;;15.10;57.90;;;;;;4756575;30;20108;-81
2023/03/06 07:46:34;;;;;;;12.35;1.30;;;15.10;57.90;;;;;;4756195;30;20437;-78
2023/03/06 07:49:02;;;;;;;13.20;0.95;;;15.10;57.90;;;;;;4771874;30;20044;-82
2023/03/06 07:51:27;;;;;;;14.88;1.52;;;15.20;58.00;;;;;;4756405;30;20063;-82
2023/03/06 07:53:56;;;;;;;12.13;1.77;;;15.20;57.90;;;;;;4756241;30;20039;-82
2023/03/06 07:56:22;;;;;;;8.07;1.27;;;15.20;57.90;;;;;;4781336;30;20475;-81
2023/03/06 07:58:48;;;;;;;8.80;1.27;;;15.20;57.80;;;;;;4755223;30;20043;-81
2023/03/06 08:01:18;;;;;;;14.98;0.88;;;15.20;57.90;;;;;;4755680;30;21557;-81
2023/03/06 08:03:57;;;;;;;8.40;0.93;;;15.30;57.80;;;;;;4755494;30;20064;-81
2023/03/06 08:06:25;;;;;;;5.68;1.38;;;15.30;58.00;;;;;;4727009;30;20048;-77
2023/03/06 08:09:08;;;;;;;7.43;1.38;;;15.30;58.00;;;;;;4751889;30;20124;-83
2023/03/06 08:15:47;;;;;;;8.48;1.00;;;15.40;58.00;;;;;;4654017;30;20049;-84
2023/03/06 08:18:25;;;;;;;9.38;1.02;;;15.40;58.00;;;;;;4683750;30;20050;-80
2023/03/06 08:21:17;;;;;;;7.50;0.73;;;15.40;57.90;;;;;;4684676;30;20406;-81
2023/03/06 08:24:24;;;;;;;8.70;0.52;;;15.40;57.90;;;;;;4699106;30;20065;-82
2023/03/06 08:27:24;;;;;;;6.60;0.75;;;15.30;58.00;;;;;;4698981;30;20088;-81
2023/03/06 08:29:53;;;;;;;6.90;1.02;;;15.30;58.00;;;;;;4682612;30;20057;-82
2023/03/06 08:32:22;;;;;;;9.77;1.50;;;15.30;58.10;;;;;;4747851;30;20055;-82
2023/03/06 08:35:04;;;;;;;7.47;0.65;;;15.20;58.00;;;;;;4741203;30;20063;-82
2023/03/06 08:37:32;;;;;;;7.30;0.73;;;15.20;58.10;;;;;;4759069;30;20043;-84
2023/03/06 08:39:58;;;;;;;8.35;1.05;;;15.10;58.10;;;;;;4772288;30;20050;-81
2023/03/06 08:42:24;;;;;;;8.38;1.08;;;15.10;58.00;;;;;;4775485;30;20131;-80
2023/03/06 08:44:50;;;;;;;5.00;0.70;;;15.00;57.90;;;;;;4759471;30;20055;-76
2023/03/06 08:47:15;;;;;;;18.05;1.25;;;15.00;57.90;;;;;;4774924;30;20079;-75
2023/03/06 08:49:41;;;;;;;4.55;0.60;;;14.90;58.00;;;;;;4774633;30;20047;-77
2023/03/06 08:52:07;;;;;;;3.13;0.50;;;14.80;58.10;;;;;;4775284;30;20444;-76
2023/03/06 08:54:34;;;;;;;4.93;0.82;;;14.80;58.20;;;;;;4759751;30;20130;-76
2023/03/06 08:57:00;;;;;;;5.20;0.52;;;14.70;58.40;;;;;;4774820;30;20116;-75
2023/03/06 08:59:26;;;;;;;3.40;0.70;;;14.70;58.60;;;;;;4775581;30;20052;-77
2023/03/06 09:01:51;;;;;;;3.15;0.45;;;14.60;59.00;;;;;;4775000;30;20482;-80
2023/03/06 09:04:17;;;;;;;4.38;0.80;;;14.60;59.20;;;;;;4774297;30;20151;-83
2023/03/06 09:06:44;;;;;;;1.65;0.47;;;14.60;59.40;;;;;;4743988;30;20111;-76
2023/03/06 09:09:10;;;;;;;2.92;0.45;;;14.50;59.60;;;;;;4775008;30;20071;-77
2023/03/06 09:11:36;;;;;;;3.47;0.35;;;14.50;59.70;;;;;;4775204;30;20079;-76
2023/03/06 09:14:03;;;;;;;1.67;0.30;;;14.50;59.80;;;;;;4759163;30;20056;-77
2023/03/06 09:16:29;;;;;;;1.95;0.20;;;14.50;60.10;;;;;;4773470;30;20059;-77
2023/03/06 09:18:56;;;;;;;3.92;0.98;;;14.50;60.20;;;;;;4775073;30;20593;-77
2023/03/06 09:21:27;;;;;;;5.68;0.50;;;14.50;60.30;;;;;;4774240;30;20062;-81
2023/03/06 09:23:52;;;;;;;3.13;0.47;;;14.50;60.40;;;;;;4744132;30;20087;-79
2023/03/06 09:26:36;;;;;;;2.42;0.22;;;14.40;60.50;;;;;;4773933;30;20164;-85
2023/03/06 09:29:02;;;;;;;5.55;0.80;;;14.50;60.80;;;;;;4767924;30;20070;-76
2023/03/06 09:31:30;;;;;;;3.80;0.68;;;14.40;60.70;;;;;;4774535;30;20052;-76
2023/03/06 09:33:56;;;;;;;3.67;0.57;;;14.40;60.40;;;;;;4774769;30;20066;-82
2023/03/06 09:36:22;;;;;;;5.63;0.52;;;14.40;60.30;;;;;;4774178;30;20131;-84
2023/03/06 09:38:51;;;;;;;4.18;0.38;;;14.40;60.30;;;;;;4743403;30;20083;-81
2023/03/06 09:54:11;;;;;;;5.68;0.68;;;14.40;54.70;;;;;;4731770;30;20373;-82
2023/03/06 09:56:37;;;;;;;5.57;0.30;;;14.20;53.40;;;;;;4736498;30;20056;-82
2023/03/06 09:59:13;;;;;;;2.42;0.30;;;14.20;54.10;;;;;;4749908;30;20147;-80
2023/03/06 10:01:43;;;;;;;2.40;0.30;;;14.20;53.30;;;;;;4805410;29;20046;-81
2023/03/06 10:04:39;;;;;;;2.75;0.25;;;14.20;53.10;;;;;;4778394;29;20039;-81
2023/03/06 10:07:20;;;;;;;1.40;0.32;;;14.30;52.80;;;;;;4793765;29;20051;-80
2023/03/06 10:09:56;;;;;;;4.03;0.20;;;14.40;53.00;;;;;;4778839;29;20054;-82
2023/03/06 10:12:47;;;;;;;2.83;0.30;;;14.50;53.50;;;;;;4793301;29;20074;-82
2023/03/06 10:15:31;;;;;;;3.13;0.13;;;14.60;54.00;;;;;;4793566;29;20042;-81
2023/03/06 10:17:58;;;;;;;1.65;0.20;;;14.70;54.10;;;;;;4793862;29;20083;-80
2023/03/06 10:20:33;;;;;;;5.25;0.50;;;14.80;54.30;;;;;;4808798;29;20082;-82
2023/03/06 10:23:36;;;;;;;2.40;0.25;;;14.80;54.60;;;;;;4823879;29;20038;-80
2023/03/06 10:26:19;;;;;;;4.65;0.47;;;14.80;54.80;;;;;;4792893;29;20039;-82
2023/03/06 10:29:03;;;;;;;9.13;0.53;;;14.90;55.20;;;;;;4792927;29;20054;-81
2023/03/06 10:31:35;;;;;;;3.28;0.20;;;14.90;55.30;;;;;;4809235;29;20046;-78
2023/03/06 10:34:34;;;;;;;2.67;0.40;;;15.00;55.40;;;;;;4791458;30;20053;-82
2023/03/06 10:37:15;;;;;;;1.23;0.10;;;15.10;55.30;;;;;;4770934;30;20055;-81
2023/03/06 10:39:44;;;;;;;3.05;0.30;;;15.20;55.20;;;;;;4773495;29;20130;-81
2023/03/06 10:42:19;;;;;;;3.30;0.25;;;15.20;55.00;;;;;;4793836;29;20054;-80
2023/03/06 10:44:44;;;;;;;4.32;0.40;;;15.30;54.90;;;;;;4808664;29;20043;-80
2023/03/06 10:47:29;;;;;;;3.95;0.73;;;15.40;55.00;;;;;;4792022;29;20459;-81
2023/03/06 10:50:06;;;;;;;7.35;1.52;;;15.50;55.20;;;;;;4808626;29;20070;-77
2023/03/06 10:52:35;;;;;;;7.00;1.83;;;15.50;55.40;;;;;;4793142;29;20055;-78
2023/03/06 10:55:28;;;;;;;12.00;2.13;;;15.60;55.40;;;;;;4809146;29;20046;-79
2023/03/06 10:57:54;;;;;;;6.57;2.10;;;15.60;55.80;;;;;;4808741;29;20035;-80
2023/03/06 11:00:37;;;;;;;10.57;1.92;;;15.60;55.90;;;;;;4808264;29;20073;-79
2023/03/06 11:03:05;;;;;;;3.88;1.73;;;15.70;56.20;;;;;;4808448;29;20366;-81
2023/03/06 11:05:30;;;;;;;6.00;2.03;;;15.70;56.20;;;;;;4808586;29;20200;-79
2023/03/06 11:07:58;;;;;;;4.35;1.65;;;15.80;56.30;;;;;;4808699;29;20138;-79
2023/03/06 11:10:25;;;;;;;8.68;2.40;;;15.80;56.30;;;;;;4803537;29;20047;-81
2023/03/06 11:12:58;;;;;;;3.85;1.52;;;15.80;56.30;;;;;;4774836;30;20047;-79
2023/03/06 11:15:26;;;;;;;7.10;1.60;;;15.90;56.40;;;;;;4777105;29;20055;-79
2023/03/06 11:18:20;;;;;;;6.78;1.70;;;16.00;56.40;;;;;;4808361;29;20371;-79
2023/03/06 11:20:47;;;;;;;;;;;15.90;56.20;;;;;;4808715;29;20058;-80
2023/03/06 11:23:18;;;;;;;5.07;1.67;;;16.00;56.20;;;;;;4777172;29;19925;-78
2023/03/06 11:26:01;;;;;;;3.45;1.42;;;16.00;56.20;;;;;;4785540;29;20047;-79
2023/03/06 11:28:39;;;;;;;3.35;0.80;;;16.00;56.20;;;;;;4792285;29;20374;-82
2023/03/06 11:31:17;;;;;;;5.50;1.00;;;16.00;56.20;;;;;;4777289;29;20130;-80
2023/03/06 11:33:53;;;;;;;3.38;0.60;;;16.10;56.00;;;;;;4777077;29;20051;-79
2023/03/06 11:36:32;;;;;;;5.50;0.98;;;16.10;55.90;;;;;;4790561;29;20051;-79
2023/03/06 11:38:58;;;;;;;5.60;1.17;;;16.20;55.90;;;;;;4798497;29;20066;-79
2023/03/06 11:41:50;;;;;;;12.65;1.02;;;16.10;55.90;;;;;;4802678;29;20062;-80
2023/03/06 11:44:21;;;;;;;6.32;0.75;;;16.20;56.00;;;;;;4792357;29;20149;-80
2023/03/06 11:47:15;;;;;;;3.60;0.82;;;16.10;56.00;;;;;;4791563;29;20054;-80
2023/03/06 11:49:48;;;;;;;8.63;1.10;;;16.20;56.00;;;;;;4777324;29;20074;-81
2023/03/06 11:52:22;;;;;;;5.82;0.50;;;16.20;55.80;;;;;;4776795;29;20066;-80
2023/03/06 11:54:54;;;;;;;5.95;0.80;;;16.20;55.60;;;;;;4777372;29;20058;-80
2023/03/06 11:57:26;;;;;;;2.63;0.77;;;16.20;55.60;;;;;;4777544;29;20047;-80
2023/03/06 12:00:13;;;;;;;7.15;0.68;;;16.20;55.50;;;;;;4792237;29;20099;-81
2023/03/06 12:03:10;;;;;;;3.45;0.45;;;16.20;55.50;;;;;;4777014;29;20084;-80
2023/03/06 12:05:41;;;;;;;5.05;0.55;;;16.20;55.30;;;;;;4792220;29;20077;-81
2023/03/06 12:08:27;;;;;;;1.50;0.40;;;16.10;55.40;;;;;;4791926;29;20518;-80
2023/03/06 12:11:26;;;;;;;1.63;0.40;;;16.10;55.40;;;;;;4791829;29;20050;-80
2023/03/06 12:13:56;;;;;;;2.55;0.40;;;16.00;55.30;;;;;;4776672;29;20134;-80
2023/03/06 12:16:28;;;;;;;3.20;0.85;;;15.90;55.50;;;;;;4777354;29;20147;-80
2023/03/06 12:19:25;;;;;;;2.42;0.35;;;15.90;55.50;;;;;;4791987;29;20485;-81
2023/03/06 12:22:25;;;;;;;1.30;0.40;;;15.80;55.50;;;;;;4791852;29;20058;-81
2023/03/06 12:25:20;;;;;;;5.30;0.40;;;15.70;55.50;;;;;;4768006;30;20055;-80
2023/03/06 12:28:14;;;;;;;1.23;0.40;;;15.70;55.60;;;;;;4774000;30;20081;-80
2023/03/06 12:31:01;;;;;;;2.85;0.32;;;15.60;55.60;;;;;;4760083;30;20062;-81
2023/03/06 12:33:39;;;;;;;2.20;0.35;;;15.60;55.80;;;;;;4784665;29;20093;-80
2023/03/06 12:36:16;;;;;;;2.88;0.13;;;15.50;55.70;;;;;;4791653;29;20063;-81
2023/03/06 12:39:03;;;;;;;1.70;0.40;;;15.50;55.80;;;;;;4791929;29;20428;-80
2023/03/06 12:41:54;;;;;;;1.15;0.15;;;15.40;55.80;;;;;;4776709;29;20420;-81
2023/03/06 12:44:42;;;;;;;1.05;0.20;;;15.40;55.70;;;;;;4776700;29;20339;-80
2023/03/06 12:47:18;;;;;;;1.45;0.10;;;15.40;55.80;;;;;;4787013;29;20471;-80
2023/03/06 12:49:51;;;;;;;3.55;0.50;;;15.30;55.80;;;;;;4807087;29;20075;-81
2023/03/06 12:52:32;;;;;;;2.65;0.50;;;15.30;56.00;;;;;;4773872;29;20051;-81
2023/03/06 12:55:20;;;;;;;4.28;0.35;;;15.30;56.30;;;;;;4754037;29;20466;-81
2023/03/06 12:57:47;;;;;;;6.03;0.47;;;15.20;56.50;;;;;;4800510;29;20051;-79
2023/03/06 13:00:32;;;;;;;2.65;0.30;;;15.20;56.40;;;;;;4760062;29;20059;-80
2023/03/06 13:03:16;;;;;;;3.30;0.30;;;15.20;56.40;;;;;;4775504;29;20130;-79
2023/03/06 13:06:23;;;;;;;4.10;0.82;;;15.10;56.50;;;;;;4807035;29;20485;-79
2023/03/06 13:09:18;;;;;;;4.78;0.40;;;15.10;56.50;;;;;;4754682;30;20087;-81
2023/03/06 13:12:06;;;;;;;5.90;0.50;;;15.10;56.70;;;;;;4773556;30;20047;-79
2023/03/06 13:14:31;;;;;;;2.10;0.30;;;15.10;56.70;;;;;;4788318;29;20454;-79
2023/03/06 13:17:19;;;;;;;5.93;0.25;;;15.00;56.60;;;;;;4791413;29;20043;-79
2023/03/06 13:19:46;;;;;;;4.68;0.20;;;15.00;56.40;;;;;;4791095;29;20074;-80
2023/03/06 13:22:42;;;;;;;2.03;0.20;;;15.00;56.70;;;;;;4791418;29;20046;-79
2023/03/06 13:25:19;;;;;;;3.45;0.40;;;15.00;56.50;;;;;;4795865;29;20065;-81
2023/03/06 13:27:51;;;;;;;2.05;0.30;;;14.90;56.50;;;;;;4794859;29;20339;-79
2023/03/06 13:30:35;;;;;;;2.30;0.32;;;14.90;56.40;;;;;;4779721;29;20108;-79
2023/03/06 13:33:21;;;;;;;;;;;14.90;56.40;;;;;;4810427;29;20042;-80
2023/03/06 13:35:55;;;;;;;7.68;0.93;;;14.90;56.50;;;;;;4779185;29;19937;-78
2023/03/06 13:38:39;;;;;;;12.57;1.65;;;14.80;56.50;;;;;;4810347;29;20061;-81
2023/03/06 13:41:32;;;;;;;12.35;1.50;;;14.80;56.10;;;;;;4809879;29;20061;-80
2023/03/06 13:44:00;;;;;;;16.13;2.05;;;14.90;56.30;;;;;;4779945;29;20062;-80
2023/03/06 13:46:35;;;;;;;26.48;2.97;;;15.00;56.60;;;;;;4808671;29;20043;-78
2023/03/06 13:49:06;;;;;;;13.48;1.83;;;15.10;56.60;;;;;;4809909;29;20067;-77
2023/03/06 13:51:52;;;;;;;13.40;1.73;;;15.20;56.60;;;;;;4810632;29;20094;-77
2023/03/06 13:54:18;;;;;;;14.80;2.72;;;15.30;56.80;;;;;;4800137;29;20046;-76
2023/03/06 13:56:58;;;;;;;12.90;1.58;;;15.30;56.80;;;;;;4809827;29;20077;-78
2023/03/06 13:59:35;;;;;;;18.92;2.03;;;15.30;56.70;;;;;;4809242;29;20134;-79
2023/03/06 14:02:45;;;;;;;16.55;1.73;;;15.40;56.90;;;;;;4793811;29;20058;-78
2023/03/06 14:05:19;;;;;;;16.48;1.63;;;15.40;57.00;;;;;;4788119;29;20490;-79
2023/03/06 14:07:48;;;;;;;12.63;2.08;;;15.50;57.00;;;;;;4808807;29;20065;-78
2023/03/06 14:10:23;;;;;;;11.32;1.50;;;15.50;57.00;;;;;;4809754;29;20126;-78
2023/03/06 14:12:49;;;;;;;20.25;1.58;;;15.50;57.10;;;;;;4792790;29;20058;-79
2023/03/06 14:15:19;;;;;;;20.80;2.47;;;15.50;57.30;;;;;;4808936;29;20051;-79
2023/03/06 14:18:02;;;;;;;14.20;2.30;;;15.50;57.40;;;;;;4793245;29;20092;-78
2023/03/06 14:20:58;;;;;;;16.40;2.27;;;15.60;57.80;;;;;;4791916;29;20139;-77
2023/03/06 14:23:34;;;;;;;23.63;2.28;;;15.60;57.80;;;;;;4803227;29;20081;-77
2023/03/06 14:26:21;;;;;;;15.30;1.83;;;15.60;57.60;;;;;;4793976;29;20049;-79
2023/03/06 14:29:00;;;;;;;37.05;3.72;;;15.80;57.90;;;;;;4809435;29;20089;-81
2023/03/06 14:31:30;;;;;;;22.58;2.55;;;15.90;57.70;;;;;;4797159;29;20363;-76
2023/03/06 14:34:00;;;;;;;22.02;3.55;;;16.00;57.40;;;;;;4807325;29;20057;-79
2023/03/06 14:36:58;;;;;;;23.65;3.90;;;15.90;57.30;;;;;;4806786;29;20427;-76
2023/03/06 14:39:39;;;;;;;25.08;2.38;;;16.00;57.30;;;;;;4787373;29;20055;-79
2023/03/06 14:42:24;;;;;;;30.52;2.95;;;16.10;57.30;;;;;;4785718;29;20065;-78
2023/03/06 14:45:15;;;;;;;19.85;3.08;;;16.10;57.10;;;;;;4802819;29;20055;-79
2023/03/06 14:47:42;;;;;;;26.95;2.60;;;16.20;56.80;;;;;;4806838;29;20458;-78
2023/03/06 14:50:28;;;;;;;16.02;2.55;;;16.20;56.90;;;;;;4792582;29;20066;-79
2023/03/06 14:53:14;;;;;;;14.90;2.20;;;16.20;56.90;;;;;;4791073;29;20051;-80
2023/03/06 14:55:49;;;;;;;20.45;2.25;;;16.20;56.80;;;;;;4791356;29;20066;-77
2023/03/06 14:58:25;;;;;;;25.88;3.28;;;16.20;56.90;;;;;;4792700;29;20052;-75
2023/03/06 15:00:53;;;;;;;23.70;3.42;;;16.30;56.60;;;;;;4807849;29;20043;-78
2023/03/06 15:03:41;;;;;;;16.10;2.90;;;16.30;56.90;;;;;;4792950;29;20412;-78
2023/03/06 15:06:14;;;;;;;24.95;3.25;;;16.30;56.20;;;;;;4791877;29;20050;-79
2023/03/06 15:08:44;;;;;;;12.07;1.77;;;16.30;55.50;;;;;;4807733;29;20129;-77
2023/03/06 15:11:10;;;;;;;15.77;1.60;;;16.20;51.70;;;;;;4807342;29;20147;-79
2023/03/06 15:13:36;;;;;;;7.80;1.73;;;16.10;50.50;;;;;;4776963;29;20110;-78
2023/03/06 15:16:21;;;;;;;13.68;2.42;;;16.00;49.80;;;;;;4792451;29;20051;-78
2023/03/06 15:19:03;;;;;;;26.38;3.20;;;16.00;49.70;;;;;;4808511;29;20054;-80
2023/03/06 15:21:36;;;;;;;25.67;3.05;;;15.90;50.30;;;;;;4792009;29;20050;-79
2023/03/06 15:24:30;;;;;;;24.40;2.40;;;16.00;50.70;;;;;;4791490;29;20082;-78
2023/03/06 15:27:03;;;;;;;20.83;3.08;;;15.80;52.00;;;;;;4791597;29;20311;-75
2023/03/06 15:29:31;;;;;;;37.55;4.85;;;15.90;52.40;;;;;;4806964;29;20051;-82
2023/03/06 15:32:12;;;;;;;24.10;3.75;;;15.90;53.00;;;;;;4807026;29;20122;-80
2023/03/06 15:34:41;;;;;;;28.35;4.57;;;15.90;53.70;;;;;;4808348;29;20058;-81
2023/03/06 15:37:27;;;;;;;27.70;3.47;;;16.10;54.00;;;;;;4791278;29;20103;-80
2023/03/06 15:40:17;;;;;;;33.22;4.28;;;16.10;54.60;;;;;;4791069;29;20467;-76
2023/03/06 15:42:43;;;;;;;27.00;4.40;;;16.20;55.20;;;;;;4792107;29;20075;-79
2023/03/06 15:45:15;;;;;;;35.38;5.10;;;16.30;55.30;;;;;;4791631;29;20039;-79
2023/03/06 15:47:42;;;;;;;32.78;4.22;;;16.30;55.70;;;;;;4808081;29;20130;-80
2023/03/06 15:50:16;;;;;;;33.65;4.60;;;16.30;56.00;;;;;;4792152;29;20142;-82
2023/03/06 15:52:42;;;;;;;26.95;3.47;;;16.30;56.20;;;;;;4775256;29;20046;-78
2023/03/06 15:55:14;;;;;;;25.60;3.60;;;16.40;56.50;;;;;;4805686;29;20055;-79
2023/03/06 15:57:58;;;;;;;32.63;4.38;;;16.40;56.70;;;;;;4806198;29;20039;-80
2023/03/06 16:00:27;;;;;;;29.90;4.38;;;16.40;56.80;;;;;;4806973;29;20047;-80
2023/03/06 16:02:54;;;;;;;27.60;4.35;;;16.30;57.20;;;;;;4791697;29;20119;-79
2023/03/06 16:05:20;;;;;;;29.90;5.63;;;16.30;58.60;;;;;;4775269;29;20126;-84
2023/03/06 16:07:47;;;;;;;24.88;4.45;;;16.30;60.50;;;;;;4777407;29;20042;-82
2023/03/06 16:10:15;;;;;;;31.70;4.97;;;16.30;59.60;;;;;;4790532;29;20057;-79
2023/03/06 16:12:43;;;;;;;30.10;5.45;;;16.20;60.50;;;;;;4807337;29;20055;-79
2023/03/06 16:15:27;;;;;;;39.50;5.65;;;16.20;62.90;;;;;;4808040;29;20054;-80
2023/03/06 16:17:54;;;;;;;;;;;16.20;64.70;;;;;;4791370;29;20078;-76
2023/03/06 16:20:25;;;;;;;35.97;6.05;;;16.30;62.80;;;;;;4806839;29;19924;-80
2023/03/06 16:22:54;;;;;;;33.67;4.13;;;16.10;62.20;;;;;;4777139;29;20129;-80
2023/03/06 16:25:22;;;;;;;38.58;5.47;;;16.20;61.50;;;;;;4790716;29;20082;-80
2023/03/06 16:28:11;;;;;;;29.00;3.72;;;16.20;62.00;;;;;;4791147;29;20042;-80
2023/03/06 16:30:37;;;;;;;32.83;5.15;;;16.20;61.40;;;;;;4775494;29;20137;-79
2023/03/06 16:33:04;;;;;;;28.52;4.05;;;16.20;62.00;;;;;;4774853;29;20058;-85
2023/03/06 16:35:36;;;;;;;21.98;3.35;;;16.10;61.30;;;;;;4787241;29;20039;-78
2023/03/06 16:38:02;;;;;;;24.95;4.40;;;16.20;61.50;;;;;;4799118;29;20047;-82
2023/03/06 16:40:39;;;;;;;21.85;3.30;;;16.10;61.50;;;;;;4798846;29;20043;-83
2023/03/06 16:43:07;;;;;;;25.48;3.30;;;16.10;61.30;;;;;;4768957;29;20447;-81
2023/03/06 16:45:40;;;;;;;19.20;3.35;;;16.10;61.20;;;;;;4783453;29;20036;-82
2023/03/06 16:48:09;;;;;;;19.42;3.90;;;16.10;61.10;;;;;;4782484;29;20104;-83
2023/03/06 16:50:39;;;;;;;29.77;3.60;;;16.00;61.10;;;;;;4766846;29;20066;-81
2023/03/06 16:53:05;;;;;;;34.75;4.15;;;16.00;60.90;;;;;;4774859;29;20087;-81
2023/03/06 16:55:32;;;;;;;34.38;4.75;;;16.10;60.90;;;;;;4782202;29;20065;-74
2023/03/06 16:57:57;;;;;;;40.38;5.13;;;16.00;60.80;;;;;;4798769;29;20058;-78
2023/03/06 17:00:23;;;;;;;38.70;6.60;;;16.00;59.20;;;;;;4786785;29;20055;-80
2023/03/06 17:02:51;;;;;;;32.55;5.00;;;16.00;60.00;;;;;;4794400;29;20061;-81
2023/03/06 17:05:17;;;;;;;27.20;3.65;;;16.10;60.10;;;;;;4795138;29;20051;-79
2023/03/06 17:07:49;;;;;;;32.40;4.05;;;16.10;60.00;;;;;;4794729;29;20121;-82
2023/03/06 17:10:25;;;;;;;21.58;3.25;;;16.10;59.80;;;;;;4779989;29;20050;-80
2023/03/06 17:12:54;;;;;;;23.45;3.40;;;16.10;60.00;;;;;;4794614;29;20047;-79
2023/03/06 17:16:10;;;;;;;16.02;3.30;;;16.00;59.70;;;;;;4810453;29;20043;-79
2023/03/06 17:18:54;;;;;;;;;;;;;;;;;;;;;
2023/03/06 17:21:58;;;;;;;23.52;3.50;;;15.60;58.10;;;;;;4800837;29;20493;-79
2023/03/06 17:24:27;;;;;;;18.83;2.88;;;15.60;59.70;;;;;;4779888;29;20050;-80
2023/03/06 17:27:00;;;;;;;22.45;3.47;;;15.60;59.90;;;;;;4795134;29;20362;-79
2023/03/06 17:29:26;;;;;;;20.70;2.78;;;15.60;59.90;;;;;;4779361;29;20050;-81
2023/03/06 17:31:52;;;;;;;11.70;2.38;;;15.70;59.90;;;;;;4810581;29;20371;-79
2023/03/06 17:34:17;;;;;;;15.55;2.35;;;15.70;59.90;;;;;;4794621;29;20050;-79
2023/03/06 17:36:43;;;;;;;15.43;2.58;;;15.70;59.90;;;;;;4779108;29;20058;-81
2023/03/06 17:39:09;;;;;;;13.40;2.58;;;15.60;59.70;;;;;;4794582;29;20118;-80
2023/03/06 17:41:35;;;;;;;16.90;3.22;;;15.60;59.30;;;;;;4779144;29;20130;-78
2023/03/06 17:44:01;;;;;;;16.80;3.45;;;15.50;60.00;;;;;;4810505;29;20118;-81
2023/03/06 17:46:27;;;;;;;19.30;2.63;;;15.60;59.90;;;;;;4794650;29;20039;-79
2023/03/06 17:48:53;;;;;;;10.05;2.75;;;15.60;59.70;;;;;;4809823;29;20066;-79
2023/03/06 17:51:19;;;;;;;17.45;1.85;;;15.60;59.50;;;;;;4794273;29;20051;-80
2023/03/06 17:53:45;;;;;;;16.13;2.05;;;15.60;59.30;;;;;;4809937;29;20447;-79
2023/03/06 17:56:13;;;;;;;14.73;2.22;;;15.60;59.10;;;;;;4793672;29;20490;-80
2023/03/06 17:58:38;;;;;;;7.53;1.77;;;15.70;59.00;;;;;;4809946;29;20069;-79
2023/03/06 18:01:10;;;;;;;10.98;1.52;;;15.60;58.80;;;;;;4793594;29;20047;-78
2023/03/06 18:03:36;;;;;;;10.05;2.40;;;15.70;58.60;;;;;;4793954;29;20116;-79
2023/03/06 18:06:03;;;;;;;8.15;1.33;;;15.70;58.60;;;;;;4778667;29;20050;-81
2023/03/06 18:08:29;;;;;;;14.88;1.90;;;15.80;58.30;;;;;;4760976;30;20134;-80
2023/03/06 18:11:03;;;;;;;11.25;1.63;;;15.80;58.30;;;;;;4791892;30;20047;-79
2023/03/06 18:13:33;;;;;;;7.68;1.70;;;15.80;58.40;;;;;;4763836;29;20069;-79
2023/03/06 18:15:59;;;;;;;8.45;1.75;;;15.80;58.50;;;;;;4809613;29;20050;-78
2023/03/06 18:18:26;;;;;;;8.27;1.60;;;15.80;58.40;;;;;;4809429;29;20055;-81
2023/03/06 18:20:51;;;;;;;5.43;1.50;;;15.80;58.50;;;;;;4778621;29;20534;-79
2023/03/06 18:23:17;;;;;;;6.38;1.75;;;15.70;58.60;;;;;;4779121;29;20059;-80
2023/03/06 18:25:43;;;;;;;7.03;2.13;;;15.70;58.60;;;;;;4807827;29;20047;-79
2023/03/06 18:28:09;;;;;;;12.85;2.10;;;15.70;59.10;;;;;;4792820;29;20088;-80
2023/03/06 18:30:37;;;;;;;9.35;2.28;;;15.70;59.10;;;;;;4809224;29;20055;-79
2023/03/06 18:33:03;;;;;;;5.63;1.55;;;15.60;58.90;;;;;;4809207;29;20051;-82
2023/03/06 18:35:29;;;;;;;7.45;1.80;;;15.60;58.80;;;;;;4808926;29;20058;-77
2023/03/06 18:37:55;;;;;;;4.50;1.83;;;15.60;58.60;;;;;;4808757;29;20131;-75
2023/03/06 18:40:21;;;;;;;10.30;2.10;;;15.50;59.30;;;;;;4803273;29;20348;-75
2023/03/06 18:42:47;;;;;;;6.50;1.90;;;15.40;59.20;;;;;;4795799;29;20150;-73
2023/03/06 18:45:13;;;;;;;7.47;1.85;;;15.50;59.20;;;;;;4803643;29;20055;-74
2023/03/06 18:47:40;;;;;;;5.85;2.17;;;15.50;59.50;;;;;;4808942;29;20134;-77
2023/03/06 18:50:06;;;;;;;5.88;2.47;;;15.50;59.60;;;;;;4809024;29;20069;-76